createdAt,value
2018-03-25T00:02:40.966Z,73.15
2018-03-25T00:17:40.375Z,73.13
2018-03-25T00:32:38.828Z,73.29
2018-03-25T00:47:42.748Z,74.08
2018-03-25T01:02:37.229Z,76.00
2018-03-25T01:17:40.112Z,78.18
2018-03-25T01:32:41.126Z,79.73
2018-03-25T01:47:49.224Z,79.13
2018-03-25T02:02:39.073Z,78.92
2018-03-25T02:17:34.394Z,78.79
2018-03-25T02:32:41.891Z,80.26
2018-03-25T02:47:40.794Z,80.94
2018-03-25T03:32:48.645Z,80.14
2018-03-25T04:47:40.070Z,79.82
2018-03-25T05:02:39.131Z,80.12
2018-03-25T05:32:38.809Z,80.65
2018-03-25T05:47:37.223Z,80.46
2018-03-25T06:02:33.988Z,79.84
2018-03-25T06:47:35.152Z,81.91
2018-03-25T07:02:35.601Z,80.02
2018-03-25T07:17:34.939Z,75.36
2018-03-25T07:47:34.910Z,70.34
2018-03-25T08:32:37.718Z,65.75
2018-03-25T08:47:37.527Z,66.59
2018-03-25T09:02:36.514Z,69.96
2018-03-25T09:17:33.854Z,71.63
2018-03-25T09:32:36.820Z,72.11
2018-03-25T09:47:36.826Z,72.01
2018-03-25T10:02:42.724Z,72.43
2018-03-25T10:17:35.075Z,71.75
2018-03-25T10:47:35.468Z,70.64
2018-03-25T11:02:35.056Z,69.94
2018-03-25T11:17:34.312Z,69.85
2018-03-25T11:32:35.936Z,69.02
2018-03-25T11:47:37.055Z,69.78
2018-03-25T12:02:43.778Z,70.19
2018-03-25T12:17:37.417Z,70.36
2018-03-25T12:32:38.247Z,71.23
2018-03-25T13:02:35.068Z,72.06
2018-03-25T13:17:39.798Z,71.62
2018-03-25T13:32:41.074Z,72.75
2018-03-25T14:17:38.252Z,68.92
2018-03-25T14:47:36.531Z,71.74
2018-03-25T15:02:37.404Z,72.91
2018-03-25T15:17:38.183Z,74.77
2018-03-25T15:32:36.795Z,75.78
2018-03-25T15:47:35.559Z,77.31
2018-03-25T16:02:37.254Z,78.75
2018-03-25T16:17:42.072Z,79.83
2018-03-25T16:32:39.841Z,80.63
2018-03-25T16:47:35.542Z,81.27
2018-03-25T17:02:39.113Z,81.84
2018-03-25T17:17:36.916Z,81.64
2018-03-25T17:47:38.497Z,81.86
2018-03-25T18:02:37.648Z,81.68
2018-03-25T18:17:40.511Z,81.98
2018-03-25T18:32:49.232Z,82.71
2018-03-25T19:02:36.893Z,83.54
2018-03-25T19:17:37.180Z,83.97
2018-03-25T19:32:38.988Z,83.72
2018-03-25T19:47:35.223Z,83.98
2018-03-25T20:02:37.059Z,83.52
2018-03-25T20:32:38.421Z,83.04
2018-03-25T20:47:38.275Z,83.14
2018-03-25T21:02:42.266Z,82.94
2018-03-25T21:17:36.685Z,83.26
2018-03-25T21:32:36.538Z,83.74
2018-03-25T22:02:34.508Z,83.92
2018-03-25T22:17:36.841Z,84.05
2018-03-25T22:32:34.244Z,84.49
2018-03-25T23:02:34.704Z,83.93
2018-03-25T23:17:35.045Z,84.12
2018-03-25T23:32:39.916Z,83.60
2018-03-25T23:47:37.920Z,82.35
